createdAt,value
2022-11-01T00:01:56.830Z,99707.34
2022-11-01T00:04:24.285Z,99699.94
2022-11-01T00:06:51.322Z,99658.81
2022-11-01T00:09:18.567Z,99692.78
2022-11-01T00:11:45.307Z,99659.97
2022-11-01T00:14:14.003Z,99686.19
2022-11-01T00:16:41.353Z,99696.94
2022-11-01T00:19:08.493Z,99705.34
2022-11-01T00:21:35.178Z,99673.25
2022-11-01T00:24:01.963Z,99674.31
2022-11-01T00:26:29.150Z,99668.28
2022-11-01T00:28:55.810Z,99686.69
2022-11-01T00:31:22.544Z,99678.69
2022-11-01T00:33:49.340Z,99650.84
2022-11-01T00:36:18.737Z,99664.53
2022-11-01T00:38:48.967Z,99645.50
2022-11-01T00:41:21.525Z,99638.84
2022-11-01T00:43:48.984Z,99651.28
2022-11-01T00:46:16.334Z,99639.28
2022-11-01T00:48:43.087Z,99623.75
2022-11-01T00:51:09.832Z,99595.28
2022-11-01T00:53:36.710Z,99609.69
2022-11-01T00:56:05.563Z,99629.66
2022-11-01T00:58:32.763Z,99585.88
2022-11-01T01:00:59.788Z,99590.91
2022-11-01T01:03:26.585Z,99598.22
2022-11-01T01:05:54.255Z,99579.28
2022-11-01T01:08:21.636Z,99593.34
2022-11-01T01:10:48.464Z,99578.75
2022-11-01T01:13:15.414Z,99573.00
2022-11-01T01:15:42.774Z,99574.47
2022-11-01T01:18:09.824Z,99550.09
2022-11-01T01:20:36.552Z,99546.16
2022-11-01T01:23:03.573Z,99553.66
2022-11-01T01:25:30.297Z,99514.06
2022-11-01T01:27:57.112Z,99513.06
2022-11-01T01:30:24.209Z,99534.97
2022-11-01T01:32:50.996Z,99490.16
2022-11-01T01:35:17.769Z,99533.59
2022-11-01T01:37:44.375Z,99513.50
2022-11-01T01:40:11.422Z,99520.47
2022-11-01T01:42:40.624Z,99487.94
2022-11-01T01:45:31.397Z,99489.38
2022-11-01T01:48:12.793Z,99483.75
2022-11-01T01:51:15.086Z,99476.19
2022-11-01T01:53:47.335Z,99465.47
2022-11-01T01:56:23.967Z,99455.47
2022-11-01T01:58:55.612Z,99445.59
2022-11-01T02:01:22.436Z,99409.75
2022-11-01T02:03:49.840Z,99405.47
2022-11-01T02:06:21.911Z,99410.69
2022-11-01T02:09:00.597Z,99400.69
2022-11-01T02:11:27.268Z,99388.19
2022-11-01T02:13:54.182Z,99386.81
2022-11-01T02:16:32.946Z,99378.09
2022-11-01T02:19:24.489Z,99380.94
2022-11-01T02:22:21.609Z,99373.28
2022-11-01T02:24:51.300Z,99367.81
2022-11-01T02:27:42.420Z,99341.72
2022-11-01T02:30:14.392Z,99349.94
2022-11-01T02:32:56.363Z,99344.47
2022-11-01T02:35:41.739Z,99334.38
2022-11-01T02:38:42.563Z,99334.91
2022-11-01T02:41:19.957Z,99313.44
2022-11-01T02:43:59.151Z,99298.19
2022-11-01T02:46:46.293Z,99284.31
2022-11-01T02:49:16.117Z,99250.53
2022-11-01T02:51:44.497Z,99263.41
2022-11-01T02:54:22.428Z,99271.59
2022-11-01T02:56:51.125Z,99219.75
2022-11-01T02:59:26.442Z,99251.50
2022-11-01T03:02:05.404Z,99240.66
2022-11-01T03:04:32.550Z,99209.63
2022-11-01T03:07:03.738Z,99217.69
2022-11-01T03:09:32.257Z,99227.88
2022-11-01T03:12:12.612Z,99205.34
2022-11-01T03:14:39.307Z,99184.81
2022-11-01T03:17:13.254Z,99205.56
2022-11-01T03:20:04.812Z,99185.72
2022-11-01T03:22:39.450Z,99230.50
2022-11-01T03:25:31.763Z,99213.13
2022-11-01T03:28:01.457Z,99193.69
2022-11-01T03:30:31.612Z,99155.84
2022-11-01T03:32:58.689Z,99167.69
2022-11-01T03:35:30.804Z,99182.41
2022-11-01T03:38:02.662Z,99172.69
2022-11-01T03:40:31.093Z,99164.59
2022-11-01T03:43:05.230Z,99174.03
2022-11-01T03:45:35.526Z,99120.28
2022-11-01T03:48:02.845Z,99109.34
2022-11-01T03:50:29.866Z,99096.22
2022-11-01T03:52:57.168Z,99116.53
2022-11-01T03:55:24.351Z,99061.66
2022-11-01T03:58:00.056Z,99062.75
2022-11-01T04:00:29.015Z,99057.66
2022-11-01T04:02:57.057Z,99048.06
2022-11-01T04:05:25.710Z,99044.25
2022-11-01T04:07:53.215Z,99045.91
2022-11-01T04:10:20.749Z,99007.47
2022-11-01T04:12:49.361Z,99014.22
2022-11-01T04:15:36.008Z,98985.47
2022-11-01T04:18:34.274Z,98999.31
2022-11-01T04:21:22.076Z,98948.50
2022-11-01T04:23:49.116Z,98962.81
2022-11-01T04:26:22.104Z,98974.53
2022-11-01T04:28:57.254Z,98947.97
2022-11-01T04:31:25.327Z,98965.91
2022-11-01T04:33:52.181Z,98953.13
2022-11-01T04:36:18.947Z,98939.53
2022-11-01T04:38:48.706Z,98956.59
2022-11-01T04:41:17.825Z,98886.84
2022-11-01T04:43:45.592Z,98911.06
2022-11-01T04:46:12.224Z,98905.47
2022-11-01T04:48:39.330Z,98883.38
2022-11-01T04:51:06.266Z,98878.59
2022-11-01T04:53:32.921Z,98866.16
2022-11-01T04:56:01.071Z,98866.66
2022-11-01T04:58:27.739Z,98869.88
2022-11-01T05:00:54.433Z,98873.22
2022-11-01T05:03:21.550Z,98845.03
2022-11-01T05:05:48.207Z,98858.75
2022-11-01T05:08:14.968Z,98845.75
2022-11-01T05:10:44.683Z,98847.53
2022-11-01T05:13:13.390Z,98840.50
2022-11-01T05:15:53.503Z,98828.75
2022-11-01T05:18:27.074Z,98789.34
2022-11-01T05:20:53.798Z,98774.91
2022-11-01T05:23:20.461Z,98771.56
2022-11-01T05:25:47.291Z,98778.59
2022-11-01T05:28:14.732Z,98732.75
2022-11-01T05:30:42.438Z,98763.41
2022-11-01T05:33:10.977Z,98743.50
2022-11-01T05:35:37.889Z,98744.16
2022-11-01T05:38:05.596Z,98731.38
2022-11-01T05:40:33.222Z,98722.06
2022-11-01T05:43:00.249Z,98687.38
2022-11-01T05:45:27.473Z,98679.56
2022-11-01T05:47:54.158Z,98643.28
2022-11-01T05:50:21.450Z,98675.16
2022-11-01T05:52:50.056Z,98649.78
2022-11-01T05:55:16.764Z,98635.06
2022-11-01T05:57:43.516Z,98634.03
2022-11-01T06:00:10.974Z,98599.59
2022-11-01T06:02:37.880Z,98629.84
2022-11-01T06:05:04.823Z,98637.31
2022-11-01T06:07:31.531Z,98628.06
2022-11-01T06:09:58.188Z,98608.31
2022-11-01T06:12:25.689Z,98619.59
2022-11-01T06:14:52.522Z,98608.50
2022-11-01T06:17:19.579Z,98618.00
2022-11-01T06:19:46.230Z,98601.09
2022-11-01T06:22:13.017Z,98576.41
2022-11-01T06:24:39.797Z,98564.13
2022-11-01T06:27:11.473Z,98596.06
2022-11-01T06:29:39.413Z,98582.47
2022-11-01T06:32:06.690Z,98564.84
2022-11-01T06:34:33.470Z,98577.34
2022-11-01T06:37:00.772Z,98559.34
2022-11-01T06:39:27.594Z,98590.03
2022-11-01T06:41:54.576Z,98557.56
2022-11-01T06:44:21.652Z,98562.38
2022-11-01T06:46:48.371Z,98554.81
2022-11-01T06:49:18.149Z,98531.34
2022-11-01T06:51:46.065Z,98525.66
2022-11-01T06:54:12.724Z,98524.03
2022-11-01T06:56:39.380Z,98510.13
2022-11-01T06:59:06.509Z,98519.06
2022-11-01T07:01:33.771Z,98516.88
2022-11-01T07:04:01.225Z,98480.47
2022-11-01T07:06:31.109Z,98510.38
2022-11-01T07:09:01.520Z,98522.88
2022-11-01T07:11:31.509Z,98488.00
2022-11-01T07:13:59.510Z,98494.63
2022-11-01T07:16:26.885Z,98467.78
2022-11-01T07:18:53.922Z,98505.97
2022-11-01T07:21:20.691Z,98460.72
2022-11-01T07:23:47.396Z,98505.91
2022-11-01T07:26:14.083Z,98440.69
2022-11-01T07:28:41.491Z,98501.56
2022-11-01T07:31:08.249Z,98481.28
2022-11-01T07:33:35.205Z,98472.53
2022-11-01T07:36:02.894Z,98498.66
2022-11-01T07:38:29.581Z,98467.59
2022-11-01T07:40:56.409Z,98473.88
2022-11-01T07:43:23.587Z,98450.38
2022-11-01T07:45:50.773Z,98506.94
2022-11-01T07:48:19.267Z,98469.13
2022-11-01T07:50:47.432Z,98494.00
2022-11-01T07:53:19.262Z,98435.84
2022-11-01T07:55:47.011Z,98493.19
2022-11-01T07:58:14.881Z,98496.59
2022-11-01T08:00:42.938Z,98462.75
2022-11-01T08:03:19.851Z,98501.97
2022-11-01T08:05:48.425Z,98500.31
2022-11-01T08:08:16.313Z,98473.06
2022-11-01T08:10:43.452Z,98463.06
2022-11-01T08:13:21.878Z,98481.66
2022-11-01T08:15:50.197Z,98477.28
2022-11-01T08:18:18.370Z,98461.31
2022-11-01T08:20:45.098Z,98464.38
2022-11-01T08:23:11.937Z,98453.50
2022-11-01T08:25:39.165Z,98483.22
2022-11-01T08:28:17.818Z,98482.75
2022-11-01T08:30:46.719Z,98469.63
2022-11-01T08:33:13.451Z,98482.47
2022-11-01T08:35:41.850Z,98474.19
2022-11-01T08:38:10.794Z,98484.28
2022-11-01T08:40:37.506Z,98441.50
2022-11-01T08:43:06.066Z,98469.59
2022-11-01T08:50:55.886Z,98470.75
2022-11-01T08:56:12.560Z,98465.28
2022-11-01T08:58:42.416Z,98455.69
2022-11-01T09:20:11.810Z,98465.06
2022-11-01T09:22:39.785Z,98487.00
2022-11-01T09:25:08.858Z,98457.00
2022-11-01T09:27:35.880Z,98473.50
2022-11-01T09:30:06.977Z,98461.94
2022-11-01T09:32:38.007Z,98469.06
2022-11-01T09:35:06.905Z,98494.09
2022-11-01T09:37:35.430Z,98494.09
2022-11-01T09:40:06.439Z,98475.06
2022-11-01T09:42:40.245Z,98491.22
2022-11-01T09:48:17.308Z,98462.91
2022-11-01T09:50:46.759Z,98501.72
2022-11-01T09:53:25.806Z,98492.06
2022-11-01T10:22:34.099Z,98495.81
2022-11-01T10:54:31.153Z,98487.31
2022-11-01T11:08:09.153Z,98506.53
2022-11-01T11:19:23.541Z,98519.66
2022-11-01T11:24:39.333Z,98557.88
2022-11-01T11:30:09.029Z,98549.13
2022-11-01T11:32:49.560Z,98549.00
2022-11-01T11:35:26.545Z,98546.84
2022-11-01T11:37:57.461Z,98555.91
2022-11-01T11:40:27.049Z,98536.47
2022-11-01T11:42:58.199Z,98545.25
2022-11-01T11:54:11.699Z,98534.72
2022-11-01T11:56:38.722Z,98511.84
2022-11-01T11:59:17.065Z,98517.66
2022-11-01T12:01:43.941Z,98500.75
2022-11-01T12:04:16.355Z,98527.38
2022-11-01T12:06:46.872Z,98509.88
2022-11-01T12:09:35.566Z,98531.94
2022-11-01T12:12:15.383Z,98531.13
2022-11-01T12:14:42.341Z,98515.31
2022-11-01T12:17:33.704Z,98537.47
2022-11-01T12:20:12.938Z,98504.28
2022-11-01T12:22:44.079Z,98509.91
2022-11-01T12:25:21.464Z,98509.56
2022-11-01T12:28:20.258Z,98547.34
2022-11-01T12:30:51.220Z,98547.19
2022-11-01T12:33:34.123Z,98514.97
2022-11-01T12:36:01.276Z,98532.34
2022-11-01T12:39:01.116Z,98566.34
2022-11-01T12:41:53.757Z,98566.03
2022-11-01T12:44:32.758Z,98567.25
2022-11-01T12:47:11.086Z,98544.72
2022-11-01T12:49:41.910Z,98546.25
2022-11-01T12:52:28.178Z,98581.75
2022-11-01T12:55:16.516Z,98562.16
2022-11-01T12:57:46.494Z,98578.16
2022-11-01T13:00:15.884Z,98582.75
2022-11-01T13:03:23.460Z,98585.69
2022-11-01T13:06:16.101Z,98581.81
2022-11-01T13:09:17.161Z,98601.19
2022-11-01T13:12:08.532Z,98594.91
2022-11-01T13:14:44.832Z,98606.97
2022-11-01T13:17:30.345Z,98614.88
2022-11-01T13:20:25.717Z,98611.22
2022-11-01T13:23:16.819Z,98621.22
2022-11-01T13:25:43.604Z,98625.16
2022-11-01T13:28:28.512Z,98623.91
2022-11-01T13:31:17.358Z,98633.09
2022-11-01T13:33:57.562Z,98631.59
2022-11-01T13:36:46.595Z,98665.53
2022-11-01T13:39:29.752Z,98666.81
2022-11-01T13:42:03.108Z,98662.91
2022-11-01T13:44:34.924Z,98660.00
2022-11-01T13:47:32.759Z,98659.41
2022-11-01T13:50:28.721Z,98672.25
2022-11-01T13:53:03.383Z,98652.06
2022-11-01T13:55:48.611Z,98658.91
2022-11-01T13:58:20.095Z,98670.06
2022-11-01T14:00:51.833Z,98685.44
2022-11-01T14:03:29.918Z,98672.56
2022-11-01T14:06:19.972Z,98677.81
2022-11-01T14:08:48.501Z,98675.75
2022-11-01T14:11:45.117Z,98691.88
2022-11-01T14:14:30.071Z,98700.94
2022-11-01T14:17:30.269Z,98699.88
2022-11-01T14:19:56.869Z,98716.44
2022-11-01T14:22:26.228Z,98710.97
2022-11-01T14:25:23.074Z,98720.41
2022-11-01T14:28:34.906Z,98719.28
2022-11-01T14:31:01.918Z,98729.44
2022-11-01T14:33:28.635Z,98700.97
2022-11-01T14:35:58.776Z,98728.13
2022-11-01T14:38:45.229Z,98720.06
2022-11-01T14:41:14.408Z,98712.72
2022-11-01T14:43:48.387Z,98724.31
2022-11-01T14:46:27.863Z,98736.94
2022-11-01T14:49:06.308Z,98724.22
2022-11-01T14:51:40.031Z,98735.19
2022-11-01T14:54:06.625Z,98748.69
2022-11-01T14:56:40.708Z,98749.16
2022-11-01T14:59:33.900Z,98767.09
2022-11-01T15:02:06.590Z,98757.38
2022-11-01T15:04:42.528Z,98758.13
2022-11-01T15:07:23.692Z,98769.56
2022-11-01T15:10:10.019Z,98764.31
2022-11-01T15:12:50.272Z,98739.97
2022-11-01T15:15:21.375Z,98740.91
2022-11-01T15:18:01.217Z,98752.00
2022-11-01T15:20:44.115Z,98761.78
2022-11-01T15:23:18.316Z,98776.97
2022-11-01T15:26:01.563Z,98771.50
2022-11-01T15:28:44.763Z,98807.66
2022-11-01T15:31:11.761Z,98795.78
2022-11-01T15:33:39.232Z,98802.09
2022-11-01T15:36:36.326Z,98804.22
2022-11-01T15:39:16.717Z,98785.94
2022-11-01T15:41:43.504Z,98781.88
2022-11-01T15:44:28.193Z,98780.78
2022-11-01T15:46:58.991Z,98801.19
2022-11-01T15:49:47.067Z,98829.00
2022-11-01T15:52:21.817Z,98822.31
2022-11-01T15:55:06.999Z,98830.78
2022-11-01T15:58:15.322Z,98838.59
2022-11-01T16:00:47.615Z,98836.81
2022-11-01T16:03:41.839Z,98864.44
2022-11-01T16:06:17.721Z,98828.81
2022-11-01T16:08:54.030Z,98838.94
2022-11-01T16:11:25.640Z,98858.19
2022-11-01T16:14:01.540Z,98901.22
2022-11-01T16:16:29.199Z,98890.13
2022-11-01T16:18:55.912Z,98877.97
2022-11-01T16:21:28.958Z,98878.19
2022-11-01T16:23:58.542Z,98908.50
2022-11-01T16:26:25.601Z,98865.97
2022-11-01T16:28:53.679Z,98900.13
2022-11-01T16:31:26.544Z,98860.47
2022-11-01T16:33:54.103Z,98929.56
2022-11-01T16:36:20.887Z,98933.88
2022-11-01T16:38:52.510Z,98894.13
2022-11-01T16:41:22.740Z,98926.25
2022-11-01T16:43:54.152Z,98917.50
2022-11-01T16:46:24.463Z,98923.81
2022-11-01T16:48:54.163Z,98971.59
2022-11-01T16:51:25.125Z,98983.44
2022-11-01T16:53:52.109Z,98950.34
2022-11-01T16:56:40.987Z,98982.41
2022-11-01T16:59:26.179Z,99002.22
2022-11-01T17:01:55.831Z,98979.78
2022-11-01T17:04:23.043Z,98987.66
2022-11-01T17:06:50.646Z,99010.72
2022-11-01T17:09:19.779Z,99014.69
2022-11-01T17:11:51.619Z,98985.97
2022-11-01T17:14:19.759Z,99026.56
2022-11-01T17:16:48.140Z,99011.56
2022-11-01T17:19:32.595Z,99030.81
2022-11-01T17:22:02.952Z,99001.19
2022-11-01T17:24:33.488Z,99007.06
2022-11-01T17:27:05.356Z,98984.72
2022-11-01T17:29:33.798Z,99015.50
2022-11-01T17:32:01.267Z,99012.16
2022-11-01T17:34:29.293Z,99031.34
2022-11-01T17:36:57.652Z,99026.72
2022-11-01T17:39:28.583Z,98989.31
2022-11-01T17:41:55.709Z,99019.38
2022-11-01T17:44:23.279Z,99056.63
2022-11-01T17:46:50.064Z,99022.25
2022-11-01T17:49:17.181Z,99017.00
2022-11-01T17:51:44.018Z,99032.91
2022-11-01T17:54:10.890Z,99037.53
2022-11-01T17:56:38.156Z,99062.38
2022-11-01T17:59:04.888Z,99072.34
2022-11-01T18:01:32.474Z,99058.38
2022-11-01T18:03:59.769Z,99047.03
2022-11-01T18:06:27.226Z,99047.56
2022-11-01T18:08:54.364Z,99069.50
2022-11-01T18:11:30.231Z,99096.16
2022-11-01T18:14:04.241Z,99087.94
2022-11-01T18:17:00.541Z,99088.66
2022-11-01T18:19:54.214Z,99096.53
2022-11-01T18:22:29.850Z,99118.63
2022-11-01T18:25:01.469Z,99086.63
2022-11-01T18:27:37.709Z,99086.38
2022-11-01T18:30:23.779Z,99088.56
2022-11-01T18:33:26.742Z,99111.63
2022-11-01T18:36:01.112Z,99112.34
2022-11-01T18:38:41.519Z,99120.06
2022-11-01T18:41:13.426Z,99111.88
2022-11-01T18:43:40.484Z,99078.91
2022-11-01T18:46:27.381Z,99119.72
2022-11-01T18:49:01.253Z,99103.38
2022-11-01T18:51:33.619Z,99130.53
2022-11-01T18:54:09.648Z,99159.59
2022-11-01T18:56:39.105Z,99145.69
2022-11-01T18:59:30.160Z,99157.00
2022-11-01T19:02:02.574Z,99157.56
2022-11-01T19:04:31.640Z,99140.91
2022-11-01T19:07:20.824Z,99175.94
2022-11-01T19:09:56.892Z,99127.66
2022-11-01T19:12:29.922Z,99176.03
2022-11-01T19:15:02.194Z,99181.91
2022-11-01T19:17:35.996Z,99176.50
2022-11-01T19:20:05.537Z,99161.47
2022-11-01T19:22:39.299Z,99200.41
2022-11-01T19:25:25.810Z,99202.97
2022-11-01T19:27:56.417Z,99172.47
2022-11-01T19:30:29.106Z,99201.00
2022-11-01T19:33:03.958Z,99128.13
2022-11-01T19:35:30.866Z,99122.31
2022-11-01T19:37:58.196Z,99155.09
2022-11-01T19:40:31.015Z,99218.91
2022-11-01T19:43:03.080Z,99190.19
2022-11-01T19:45:33.414Z,99201.50
2022-11-01T19:48:02.569Z,99225.53
2022-11-01T19:50:56.101Z,99232.47
2022-11-01T19:53:31.615Z,99226.09
2022-11-01T19:56:06.805Z,99239.28
2022-11-01T19:58:42.877Z,99234.78
2022-11-01T20:01:25.701Z,99240.56
2022-11-01T20:03:58.278Z,99241.88
2022-11-01T20:06:32.711Z,99251.38
2022-11-01T20:09:27.813Z,99242.00
2022-11-01T20:11:56.123Z,99255.22
2022-11-01T20:14:22.971Z,99245.59
2022-11-01T20:16:52.426Z,99237.06
2022-11-01T20:19:20.516Z,99243.75
2022-11-01T20:21:52.478Z,99251.53
2022-11-01T20:24:21.695Z,99242.81
2022-11-01T20:26:48.700Z,99258.53
2022-11-01T20:29:15.479Z,99253.31
2022-11-01T20:31:42.235Z,99251.03
2022-11-01T20:34:09.597Z,99247.84
2022-11-01T20:36:36.318Z,99250.78
2022-11-01T20:39:03.317Z,99244.81
2022-11-01T20:41:33.233Z,99246.56
2022-11-01T20:44:00.603Z,99254.13
2022-11-01T20:46:39.079Z,99253.06
2022-11-01T20:49:06.209Z,99263.25
2022-11-01T20:51:33.121Z,99256.81
2022-11-01T20:54:00.280Z,99269.56
2022-11-01T20:56:27.064Z,99221.44
2022-11-01T20:58:53.886Z,99280.38
2022-11-01T21:01:22.119Z,99289.06
2022-11-01T21:03:57.866Z,99298.34
2022-11-01T21:06:31.647Z,99292.91
2022-11-01T21:09:04.598Z,99299.88
2022-11-01T21:11:44.086Z,99290.13
2022-11-01T21:14:18.337Z,99307.09
2022-11-01T21:19:55.817Z,99318.34
2022-11-01T21:22:25.651Z,99310.50
2022-11-01T21:24:52.688Z,99305.94
2022-11-01T21:30:20.318Z,99320.59
2022-11-01T21:32:50.163Z,99318.13
2022-11-01T21:35:20.083Z,99338.69
2022-11-01T21:37:51.384Z,99341.69
2022-11-01T21:40:29.760Z,99343.25
2022-11-01T21:42:58.310Z,99310.22
2022-11-01T21:45:30.976Z,99332.53
2022-11-01T21:48:15.673Z,99326.44
2022-11-01T21:50:45.114Z,99340.66
2022-11-01T21:53:11.774Z,99328.66
2022-11-01T21:55:38.509Z,99347.34
2022-11-01T21:58:05.138Z,99339.09
2022-11-01T22:00:31.856Z,99361.25
2022-11-01T22:02:58.497Z,99313.06
2022-11-01T22:05:25.116Z,99354.84
2022-11-01T22:07:51.755Z,99347.84
2022-11-01T22:10:18.595Z,99339.78
2022-11-01T22:12:45.264Z,99355.94
2022-11-01T22:15:11.897Z,99349.13
2022-11-01T22:17:38.552Z,99329.47
2022-11-01T22:20:05.753Z,99359.72
2022-11-01T22:22:32.420Z,99309.19
2022-11-01T22:24:59.175Z,99335.91
2022-11-01T22:27:25.831Z,99333.53
2022-11-01T22:29:52.449Z,99345.09
2022-11-01T22:32:19.091Z,99346.06
2022-11-01T22:34:46.303Z,99349.03
2022-11-01T22:37:13.537Z,99361.16
2022-11-01T22:39:40.212Z,99351.66
2022-11-01T22:42:14.817Z,99298.13
2022-11-01T22:44:45.572Z,99362.88
2022-11-01T22:47:30.663Z,99363.63
2022-11-01T22:50:02.859Z,99357.38
2022-11-01T22:52:35.054Z,99351.72
2022-11-01T22:55:07.969Z,99355.19
2022-11-01T22:57:40.511Z,99369.34
2022-11-01T23:00:27.941Z,99374.72
2022-11-01T23:03:22.668Z,99367.41
2022-11-01T23:05:57.008Z,99376.16
2022-11-01T23:08:26.216Z,99372.94
2022-11-01T23:10:53.310Z,99363.00
2022-11-01T23:13:48.086Z,99369.84
2022-11-01T23:16:27.546Z,99372.38
2022-11-01T23:18:57.729Z,99382.16
2022-11-01T23:21:24.807Z,99351.25
2022-11-01T23:23:51.516Z,99369.47
2022-11-01T23:26:19.782Z,99392.75
2022-11-01T23:28:49.738Z,99379.44
2022-11-01T23:31:16.892Z,99374.22
2022-11-01T23:33:46.104Z,99383.59
2022-11-01T23:36:33.553Z,99392.63
2022-11-01T23:39:03.650Z,99378.69
2022-11-01T23:41:36.721Z,99397.53
2022-11-01T23:44:30.078Z,99394.69
2022-11-01T23:47:15.093Z,99416.09
2022-11-01T23:49:42.774Z,99400.00
2022-11-01T23:52:44.583Z,99421.31
2022-11-01T23:55:31.469Z,99426.41
2022-11-01T23:58:12.204Z,99435.41
